Time;durP1;ratioP1;P1;durP2;ratioP2;P2;SDS_P1;SDS_P2;PMS_P1;PMS_P2;Temp;Humidity;BMP_temperature;BMP_pressure;BME280_temperature;BME280_humidity;BME280_pressure;Samples;Min_cycle;Max_cycle;Signal;HPM_P1;HPM_P2
2022/08/15 00:01:36;;;;;;;597.40;188.33;;;16.80;99.90;;;;;;4178512;28;20195;-73
2022/08/15 00:03:49;;;;;;;347.63;216.03;;;16.80;99.90;;;;;;4180576;28;20223;-72
2022/08/15 00:05:50;;;;;;;502.60;246.73;;;16.90;99.90;;;;;;4180554;28;20156;-75
2022/08/15 00:07:53;;;;;;;60.37;56.60;;;16.80;99.90;;;;;;4180163;28;20891;-73
2022/08/15 00:09:54;;;;;;;253.53;233.70;;;16.90;99.90;;;;;;4180049;28;20643;-73
2022/08/15 00:11:57;;;;;;;735.30;223.40;;;16.80;99.90;;;;;;4163643;28;20184;-72
2022/08/15 00:14:14;;;;;;;1266.20;348.10;;;16.90;99.90;;;;;;4179981;28;20208;-72
2022/08/15 00:16:16;;;;;;;143.07;135.30;;;16.90;99.20;;;;;;4179919;28;20191;-72
2022/08/15 00:18:19;;;;;;;412.93;208.20;;;16.90;99.70;;;;;;4180120;28;20950;-73
2022/08/15 00:20:20;;;;;;;249.70;117.43;;;17.00;99.10;;;;;;4179800;28;20180;-72
2022/08/15 00:22:20;;;;;;;218.17;135.90;;;17.00;99.80;;;;;;4181697;28;20261;-74
2022/08/15 00:24:28;;;;;;;252.50;237.50;;;17.00;99.90;;;;;;4182136;28;20187;-72
2022/08/15 00:26:29;;;;;;;347.57;164.93;;;17.00;99.90;;;;;;4180645;28;20258;-73
2022/08/15 00:28:29;;;;;;;615.20;203.67;;;17.00;99.90;;;;;;4180146;28;20677;-73
2022/08/15 00:30:31;;;;;;;383.33;124.17;;;16.90;99.90;;;;;;4180671;28;20199;-73
2022/08/15 00:32:33;;;;;;;168.77;157.93;;;17.00;99.90;;;;;;4180312;28;20208;-73
2022/08/15 00:34:33;;;;;;;139.23;118.40;;;17.00;99.90;;;;;;4180201;28;20247;-73
2022/08/15 00:36:34;;;;;;;641.67;270.80;;;16.90;99.90;;;;;;4180622;28;20184;-73
2022/08/15 00:38:35;;;;;;;299.30;166.77;;;16.80;99.90;;;;;;4181954;28;20184;-74
2022/08/15 00:42:56;;;;;;;173.73;156.90;;;16.90;99.90;;;;;;4179806;28;20215;-75
2022/08/15 00:44:59;;;;;;;524.60;206.57;;;16.80;99.90;;;;;;4181698;28;20263;-73
2022/08/15 00:47:04;;;;;;;351.80;264.60;;;16.70;99.90;;;;;;4167958;28;20183;-74
2022/08/15 00:49:06;;;;;;;661.50;256.23;;;16.60;99.90;;;;;;4147900;28;20195;-73
2022/08/15 00:51:27;;;;;;;314.40;247.30;;;16.60;99.90;;;;;;4163347;28;20173;-73
2022/08/15 00:53:28;;;;;;;665.77;226.37;;;16.60;99.90;;;;;;4163218;28;20208;-74
2022/08/15 00:55:31;;;;;;;211.70;131.70;;;16.50;99.90;;;;;;4162848;28;20173;-73
2022/08/15 00:57:37;;;;;;;150.87;141.50;;;16.40;99.90;;;;;;4162858;28;20262;-73
2022/08/15 00:59:48;;;;;;;250.33;234.63;;;16.50;99.90;;;;;;4163398;28;20259;-74
2022/08/15 01:01:50;;;;;;;331.27;305.33;;;16.50;99.90;;;;;;4162899;28;20203;-73
2022/08/15 01:03:52;;;;;;;681.73;258.73;;;16.40;99.90;;;;;;4163559;28;20203;-73
2022/08/15 01:05:59;;;;;;;588.80;206.83;;;16.50;99.90;;;;;;4164306;28;20184;-73
2022/08/15 01:08:01;;;;;;;173.23;154.30;;;16.50;99.90;;;;;;4163739;28;20187;-73
2022/08/15 01:10:07;;;;;;;310.90;277.60;;;16.50;99.90;;;;;;4178912;28;20192;-74
2022/08/15 01:12:18;;;;;;;350.83;220.50;;;16.50;99.90;;;;;;4162482;28;20172;-74
2022/08/15 01:14:21;;;;;;;1264.20;307.50;;;16.50;99.90;;;;;;4147587;28;20193;-75
2022/08/15 01:16:24;;;;;;;391.83;310.40;;;16.40;99.90;;;;;;4163426;28;20181;-74
2022/08/15 01:18:25;;;;;;;952.70;309.97;;;16.40;99.90;;;;;;4181915;28;20187;-74
2022/08/15 01:20:31;;;;;;;151.73;100.70;;;16.30;99.90;;;;;;4182381;28;20210;-73
2022/08/15 01:22:56;;;;;;;111.20;103.47;;;16.30;99.90;;;;;;4184087;28;20218;-74
2022/08/15 01:24:59;;;;;;;195.77;110.53;;;16.30;99.90;;;;;;4183385;28;20211;-74
2022/08/15 01:26:59;;;;;;;168.80;134.67;;;16.30;99.90;;;;;;4185041;28;20184;-73
2022/08/15 01:29:00;;;;;;;943.63;162.30;;;16.40;99.90;;;;;;4182424;28;20252;-75
2022/08/15 01:31:12;;;;;;;1885.83;342.40;;;16.50;99.90;;;;;;4182982;28;20836;-73
2022/08/15 01:33:14;;;;;;;161.97;148.53;;;16.50;99.90;;;;;;4183781;28;20207;-74
2022/08/15 01:35:15;;;;;;;620.00;204.13;;;16.50;99.90;;;;;;4182924;28;20203;-74
2022/08/15 01:37:16;;;;;;;142.90;113.93;;;16.40;99.90;;;;;;4166624;28;20181;-74
2022/08/15 01:39:37;;;;;;;214.33;196.37;;;16.40;99.90;;;;;;4182655;28;20187;-74
2022/08/15 01:42:02;;;;;;;190.00;177.03;;;16.50;99.90;;;;;;4182202;28;20184;-74
2022/08/15 01:44:36;;;;;;;427.07;183.30;;;16.40;99.90;;;;;;4185640;28;20750;-74
2022/08/15 01:47:02;;;;;;;182.77;172.50;;;16.50;99.90;;;;;;4183190;28;20279;-72
2022/08/15 01:49:23;;;;;;;421.07;151.87;;;16.50;99.90;;;;;;4183999;28;20557;-74
2022/08/15 01:51:23;;;;;;;102.47;95.10;;;16.50;99.90;;;;;;4182196;28;20574;-74
2022/08/15 01:53:31;;;;;;;369.10;191.00;;;16.40;99.90;;;;;;4183492;28;20234;-74
2022/08/15 01:55:43;;;;;;;79.33;64.33;;;16.40;99.90;;;;;;4181516;28;20176;-73
2022/08/15 01:57:44;;;;;;;532.53;158.17;;;16.30;99.90;;;;;;4182715;28;20648;-74
2022/08/15 01:59:54;;;;;;;103.80;97.87;;;16.20;99.90;;;;;;4183240;28;20186;-74
2022/08/15 02:01:58;;;;;;;881.03;207.60;;;16.10;99.90;;;;;;4181921;28;20194;-73
2022/08/15 02:03:58;;;;;;;225.83;85.27;;;16.10;99.30;;;;;;4183079;28;20196;-74
2022/08/15 02:06:23;;;;;;;58.23;52.60;;;16.00;99.90;;;;;;4182653;28;20181;-74
2022/08/15 02:08:24;;;;;;;1147.27;197.23;;;16.00;98.20;;;;;;4180095;28;20168;-73
2022/08/15 02:10:25;;;;;;;159.43;109.40;;;16.10;98.60;;;;;;4179514;28;20214;-74
2022/08/15 02:12:33;;;;;;;322.83;96.73;;;16.10;98.40;;;;;;4183995;28;20188;-73
2022/08/15 02:14:35;;;;;;;616.83;144.27;;;16.00;98.90;;;;;;4183542;28;20184;-72
2022/08/15 02:16:38;;;;;;;351.90;117.73;;;15.90;98.50;;;;;;4183648;28;20203;-73
2022/08/15 02:18:39;;;;;;;18.57;17.43;;;15.90;98.60;;;;;;4181879;28;20192;-73
2022/08/15 02:20:39;;;;;;;118.00;90.13;;;15.90;98.70;;;;;;4182706;28;20184;-73
2022/08/15 02:22:41;;;;;;;20.63;19.53;;;16.00;98.70;;;;;;4181844;28;20309;-75
2022/08/15 02:24:42;;;;;;;136.50;84.53;;;16.00;99.30;;;;;;4181420;28;20206;-72
2022/08/15 02:26:43;;;;;;;290.03;88.80;;;16.00;99.00;;;;;;4172022;28;20239;-73
2022/08/15 02:28:44;;;;;;;222.67;74.63;;;16.00;98.90;;;;;;4182013;28;20226;-72
2022/08/15 02:30:46;;;;;;;20.87;19.27;;;16.10;97.70;;;;;;4182838;28;20195;-73
2022/08/15 02:32:47;;;;;;;109.50;99.30;;;16.10;98.00;;;;;;4182199;28;20227;-73
2022/08/15 02:34:48;;;;;;;156.70;144.97;;;16.10;98.50;;;;;;4183345;28;20264;-73
2022/08/15 02:36:48;;;;;;;406.70;148.27;;;16.10;99.40;;;;;;4183000;28;20180;-74
2022/08/15 02:38:50;;;;;;;160.43;68.90;;;16.10;98.80;;;;;;4183098;28;20186;-74
2022/08/15 02:40:51;;;;;;;43.77;40.77;;;16.20;97.90;;;;;;4181084;28;20184;-73
2022/08/15 02:42:51;;;;;;;603.43;163.00;;;16.10;98.90;;;;;;4182137;28;20308;-74
2022/08/15 02:44:52;;;;;;;548.83;168.97;;;16.20;99.00;;;;;;4180884;28;20188;-74
2022/08/15 02:46:54;;;;;;;1795.13;317.10;;;16.10;99.00;;;;;;4181916;28;20199;-73
2022/08/15 02:49:01;;;;;;;496.40;114.43;;;16.00;99.20;;;;;;4183089;28;20175;-73
2022/08/15 02:51:02;;;;;;;1387.50;257.40;;;16.00;98.70;;;;;;4182124;28;20184;-74
2022/08/15 02:53:15;;;;;;;508.13;141.03;;;16.10;98.50;;;;;;4182769;28;20204;-75
2022/08/15 02:55:15;;;;;;;520.80;130.30;;;16.10;98.10;;;;;;4182869;28;20172;-74
2022/08/15 02:57:16;;;;;;;771.80;137.20;;;16.10;97.80;;;;;;4183122;28;20184;-75
2022/08/15 02:59:17;;;;;;;207.97;82.03;;;16.00;98.20;;;;;;4181286;28;20696;-75
2022/08/15 03:01:20;;;;;;;292.23;109.43;;;16.00;98.50;;;;;;4181198;28;20274;-73
2022/08/15 03:03:20;;;;;;;635.80;118.30;;;16.10;98.00;;;;;;4182127;28;20231;-74
2022/08/15 03:05:27;;;;;;;1025.60;214.67;;;16.10;98.00;;;;;;4181861;28;20176;-75
2022/08/15 03:07:28;;;;;;;75.17;40.50;;;16.10;98.20;;;;;;4180775;28;20180;-72
2022/08/15 03:09:29;;;;;;;107.97;73.47;;;16.20;98.10;;;;;;4182874;28;20267;-74
2022/08/15 03:11:30;;;;;;;87.67;71.57;;;16.00;98.90;;;;;;4182320;28;20553;-75
2022/08/15 03:13:31;;;;;;;480.07;217.17;;;16.00;99.60;;;;;;4181410;28;20234;-74
2022/08/15 03:15:53;;;;;;;351.23;142.87;;;15.90;99.80;;;;;;4183271;28;20194;-73
2022/08/15 03:17:54;;;;;;;34.10;31.30;;;15.80;99.90;;;;;;4181835;28;20185;-73
2022/08/15 03:19:54;;;;;;;414.17;149.33;;;15.80;99.90;;;;;;4182677;28;20172;-74
2022/08/15 03:21:55;;;;;;;38.17;35.50;;;15.70;99.90;;;;;;4182656;28;20266;-74
2022/08/15 03:23:56;;;;;;;1368.53;231.33;;;15.70;99.90;;;;;;4180835;28;20196;-74
2022/08/15 03:25:59;;;;;;;586.40;124.93;;;15.70;99.90;;;;;;4182784;28;20176;-74
2022/08/15 03:28:00;;;;;;;651.77;140.73;;;15.70;99.50;;;;;;4180878;28;20187;-75
2022/08/15 03:30:01;;;;;;;242.77;63.80;;;15.70;99.30;;;;;;4181424;28;20192;-74
2022/08/15 03:32:12;;;;;;;27.63;26.10;;;15.70;99.30;;;;;;4181992;28;20249;-75
2022/08/15 03:34:14;;;;;;;171.90;146.10;;;15.50;99.90;;;;;;4182800;28;20159;-74
2022/08/15 03:36:17;;;;;;;607.90;154.97;;;15.50;99.90;;;;;;4181753;28;20180;-74
2022/08/15 03:38:18;;;;;;;151.07;79.93;;;15.40;99.90;;;;;;4182404;28;20192;-73
2022/08/15 03:40:19;;;;;;;90.17;84.60;;;15.40;99.90;;;;;;4180625;28;20180;-73
2022/08/15 03:42:19;;;;;;;45.83;42.53;;;15.30;99.90;;;;;;4180604;28;20247;-74
2022/08/15 03:44:20;;;;;;;57.23;54.07;;;15.30;99.90;;;;;;4182607;28;20180;-73
2022/08/15 03:46:22;;;;;;;264.23;134.30;;;15.20;99.90;;;;;;4184238;28;20188;-74
2022/08/15 03:48:26;;;;;;;48.23;45.40;;;15.20;99.90;;;;;;4182197;28;20204;-76
2022/08/15 03:50:26;;;;;;;89.47;41.00;;;15.20;99.90;;;;;;4179097;28;20181;-75
2022/08/15 03:52:27;;;;;;;107.03;98.93;;;15.10;99.90;;;;;;4179872;28;20263;-74
2022/08/15 03:54:28;;;;;;;216.03;93.40;;;15.10;99.90;;;;;;4180153;28;20219;-74
2022/08/15 03:56:31;;;;;;;307.07;101.63;;;15.00;99.90;;;;;;4179948;28;20190;-73
2022/08/15 03:58:33;;;;;;;761.43;177.97;;;15.00;99.90;;;;;;4178549;28;20270;-74
2022/08/15 04:00:37;;;;;;;414.00;120.17;;;15.10;99.90;;;;;;4179441;28;20176;-75
2022/08/15 04:02:37;;;;;;;214.43;78.57;;;15.00;99.90;;;;;;4179793;28;20214;-74
2022/08/15 04:04:38;;;;;;;279.87;99.20;;;15.00;99.90;;;;;;4179656;28;20909;-74
2022/08/15 04:06:40;;;;;;;238.67;83.13;;;15.10;99.80;;;;;;4180584;28;20566;-74
2022/08/15 04:08:41;;;;;;;544.17;113.93;;;15.20;99.60;;;;;;4177990;28;20181;-74
2022/08/15 04:10:42;;;;;;;965.77;189.47;;;15.30;99.20;;;;;;4180742;28;20190;-74
2022/08/15 04:12:43;;;;;;;251.20;87.90;;;15.40;98.50;;;;;;4181974;28;20208;-73
2022/08/15 04:14:44;;;;;;;449.90;154.77;;;15.50;98.30;;;;;;4180911;28;20669;-74
2022/08/15 04:16:44;;;;;;;1020.40;221.83;;;15.50;98.20;;;;;;4182505;28;20194;-74
2022/08/15 04:18:45;;;;;;;1063.63;233.47;;;15.50;97.80;;;;;;4182442;28;20192;-73
2022/08/15 04:20:46;;;;;;;724.97;159.33;;;15.60;97.80;;;;;;4179123;28;20249;-74
2022/08/15 04:22:49;;;;;;;1160.23;258.57;;;15.70;97.90;;;;;;4174239;28;20215;-74
2022/08/15 04:24:49;;;;;;;311.83;87.27;;;15.70;97.00;;;;;;4182875;28;20179;-73
2022/08/15 04:26:50;;;;;;;788.93;180.77;;;15.70;97.10;;;;;;4183173;28;20207;-74
2022/08/15 04:28:50;;;;;;;868.70;189.87;;;15.80;97.10;;;;;;4182035;28;20181;-73
2022/08/15 04:30:51;;;;;;;54.37;51.20;;;15.80;97.20;;;;;;4182655;28;20310;-73
2022/08/15 04:32:53;;;;;;;1169.33;204.73;;;15.70;97.40;;;;;;4181860;28;20303;-73
2022/08/15 04:34:57;;;;;;;656.87;138.57;;;15.70;96.90;;;;;;4183206;28;20184;-74
2022/08/15 04:36:58;;;;;;;907.37;228.40;;;15.80;96.50;;;;;;4183224;28;20180;-73
2022/08/15 04:38:58;;;;;;;283.17;100.67;;;15.80;96.60;;;;;;4182913;28;20183;-74
2022/08/15 04:41:01;;;;;;;66.17;57.00;;;15.80;96.40;;;;;;4182283;28;20184;-73
2022/08/15 04:43:03;;;;;;;127.17;66.27;;;15.70;96.70;;;;;;4181530;28;20224;-73
2022/08/15 04:45:04;;;;;;;66.70;59.87;;;15.60;97.50;;;;;;4182300;28;20176;-74
2022/08/15 04:47:05;;;;;;;230.73;80.53;;;15.50;97.70;;;;;;4181077;28;20188;-74
2022/08/15 04:49:06;;;;;;;171.40;100.43;;;15.60;97.30;;;;;;4181668;28;20172;-74
2022/08/15 04:51:06;;;;;;;18.23;17.03;;;15.60;97.10;;;;;;4177688;28;20562;-74
2022/08/15 04:53:08;;;;;;;16.80;15.87;;;15.50;97.50;;;;;;4175936;28;20200;-74
2022/08/15 04:55:09;;;;;;;49.97;44.97;;;15.50;97.80;;;;;;4166081;28;20207;-75
2022/08/15 04:57:10;;;;;;;62.90;58.97;;;15.50;97.70;;;;;;4166223;28;20184;-75
2022/08/15 04:59:11;;;;;;;277.47;99.40;;;15.50;97.80;;;;;;4166039;28;20193;-74
2022/08/15 05:01:12;;;;;;;51.20;34.83;;;15.50;98.20;;;;;;4165373;28;20268;-75
2022/08/15 05:03:16;;;;;;;45.60;29.97;;;15.50;98.00;;;;;;4164750;28;20617;-74
2022/08/15 05:05:17;;;;;;;40.93;38.17;;;15.50;97.90;;;;;;4166041;28;20185;-74
2022/08/15 05:07:18;;;;;;;54.57;50.93;;;15.60;97.70;;;;;;4165811;28;20174;-75
2022/08/15 05:09:18;;;;;;;26.23;24.63;;;15.50;98.00;;;;;;4165774;28;20215;-75
2022/08/15 05:11:21;;;;;;;91.63;82.10;;;15.50;98.00;;;;;;4165090;28;20173;-74
2022/08/15 05:13:26;;;;;;;124.37;73.00;;;15.60;97.90;;;;;;4165686;28;20725;-75
2022/08/15 05:15:26;;;;;;;84.27;78.07;;;15.70;97.80;;;;;;4178486;28;20222;-75
2022/08/15 05:17:27;;;;;;;249.87;104.27;;;15.80;97.50;;;;;;4182067;28;20219;-75
2022/08/15 05:19:27;;;;;;;108.57;99.13;;;15.80;96.20;;;;;;4182031;28;20780;-74
2022/08/15 05:21:29;;;;;;;503.90;169.23;;;15.80;97.00;;;;;;4180105;28;20653;-75
2022/08/15 05:23:30;;;;;;;310.90;108.93;;;15.80;96.70;;;;;;4181779;28;20212;-75
2022/08/15 05:25:33;;;;;;;134.83;114.57;;;15.70;97.00;;;;;;4181965;28;20187;-75
2022/08/15 05:27:34;;;;;;;321.20;129.50;;;15.80;97.00;;;;;;4181788;28;20180;-75
2022/08/15 05:29:35;;;;;;;102.53;82.20;;;16.00;96.50;;;;;;4181758;28;20207;-75
2022/08/15 05:31:35;;;;;;;363.43;156.03;;;16.00;96.70;;;;;;4181346;28;20858;-75
2022/08/15 05:33:37;;;;;;;170.70;99.93;;;16.00;96.80;;;;;;4180650;28;20208;-74
2022/08/15 05:35:43;;;;;;;134.90;108.30;;;15.90;96.60;;;;;;4181546;28;20188;-75
2022/08/15 05:37:44;;;;;;;272.30;88.53;;;16.00;96.50;;;;;;4180265;28;20275;-75
2022/08/15 05:39:45;;;;;;;175.77;117.97;;;16.10;95.70;;;;;;4196876;28;20191;-74
2022/08/15 05:42:10;;;;;;;391.17;145.47;;;16.20;95.20;;;;;;4181155;28;20215;-75
2022/08/15 05:44:36;;;;;;;87.20;77.03;;;16.30;95.20;;;;;;4182047;28;20215;-74
2022/08/15 05:47:06;;;;;;;161.47;90.67;;;16.30;94.60;;;;;;4183962;28;20597;-74
2022/08/15 05:49:15;;;;;;;53.37;50.67;;;16.50;94.30;;;;;;4182553;28;20291;-75
2022/08/15 05:51:46;;;;;;;304.03;166.80;;;16.70;94.10;;;;;;4181094;28;20692;-75
2022/08/15 05:54:05;;;;;;;119.90;43.03;;;16.70;93.40;;;;;;4181297;28;21084;-75
2022/08/15 05:56:22;;;;;;;460.83;129.00;;;16.80;93.10;;;;;;4181475;28;20287;-75
2022/08/15 05:58:52;;;;;;;412.17;99.53;;;17.00;90.90;;;;;;4179991;28;20664;-75
2022/08/15 06:01:11;;;;;;;201.10;70.40;;;17.10;91.00;;;;;;4179823;28;20969;-74
2022/08/15 06:03:21;;;;;;;106.53;57.93;;;17.10;89.60;;;;;;4181335;28;20711;-75
2022/08/15 06:05:35;;;;;;;118.63;59.27;;;17.00;87.70;;;;;;4180759;28;20160;-74
2022/08/15 06:07:37;;;;;;;458.13;110.27;;;17.00;88.90;;;;;;4181301;28;20203;-75
2022/08/15 06:09:44;;;;;;;124.83;57.97;;;17.00;85.60;;;;;;4179746;28;20242;-75
2022/08/15 06:11:46;;;;;;;334.87;88.20;;;17.00;85.80;;;;;;4180960;28;20195;-76
2022/08/15 06:13:57;;;;;;;1426.07;259.40;;;16.90;84.00;;;;;;4180358;28;20219;-75
2022/08/15 06:16:06;;;;;;;193.13;73.60;;;17.00;83.80;;;;;;4181575;28;20191;-73
2022/08/15 06:18:10;;;;;;;104.87;43.40;;;17.00;83.10;;;;;;4180442;28;20164;-73
2022/08/15 06:20:17;;;;;;;657.77;153.20;;;17.00;83.30;;;;;;4179983;28;20180;-72
2022/08/15 06:22:38;;;;;;;714.63;141.63;;;17.10;82.80;;;;;;4180854;28;20255;-73
2022/08/15 06:24:55;;;;;;;93.67;51.87;;;17.10;79.70;;;;;;4181639;28;20172;-74
2022/08/15 06:27:10;;;;;;;70.03;41.07;;;17.10;77.30;;;;;;4180416;28;20336;-74
2022/08/15 06:29:26;;;;;;;829.27;158.60;;;17.10;77.90;;;;;;4179709;28;20576;-74
2022/08/15 06:31:33;;;;;;;47.80;42.70;;;17.10;76.10;;;;;;4180237;28;20266;-74
2022/08/15 06:34:10;;;;;;;97.67;36.87;;;17.10;77.30;;;;;;4179810;28;20257;-74
2022/08/15 06:36:31;;;;;;;293.77;66.63;;;17.10;76.70;;;;;;4179529;28;20253;-74
2022/08/15 06:38:58;;;;;;;1111.37;238.50;;;17.20;76.80;;;;;;4180906;28;20199;-74
2022/08/15 06:41:04;;;;;;;26.63;21.67;;;17.20;75.70;;;;;;4180179;28;20177;-75
2022/08/15 06:43:07;;;;;;;465.37;101.33;;;17.20;75.90;;;;;;4180728;28;20265;-74
2022/08/15 06:45:20;;;;;;;374.27;84.63;;;17.30;75.80;;;;;;4181217;28;20180;-74
2022/08/15 06:47:23;;;;;;;194.73;73.77;;;17.30;74.90;;;;;;4183596;28;20262;-74
2022/08/15 06:49:24;;;;;;;18.57;17.43;;;17.30;75.20;;;;;;4185035;28;20177;-73
2022/08/15 06:51:26;;;;;;;105.80;48.10;;;17.30;76.30;;;;;;4201427;28;20232;-74
2022/08/15 06:53:49;;;;;;;210.07;68.73;;;17.30;76.40;;;;;;4184499;28;20223;-73
2022/08/15 06:55:52;;;;;;;127.30;59.53;;;17.40;74.80;;;;;;4180982;28;20188;-75
2022/08/15 06:58:03;;;;;;;550.60;146.23;;;17.50;73.30;;;;;;4164819;28;20185;-75
2022/08/15 07:00:16;;;;;;;178.00;62.27;;;17.60;71.60;;;;;;4162491;28;20239;-74
2022/08/15 07:02:46;;;;;;;200.40;73.30;;;17.70;70.50;;;;;;4178629;28;20322;-75
2022/08/15 07:05:07;;;;;;;18.10;15.80;;;17.70;70.20;;;;;;4162459;28;20460;-74
2022/08/15 07:07:43;;;;;;;165.50;65.67;;;17.80;70.00;;;;;;4162580;28;20188;-74
2022/08/15 07:09:52;;;;;;;419.57;134.07;;;17.80;69.80;;;;;;4163517;28;20263;-74
2022/08/15 07:12:11;;;;;;;174.83;58.60;;;17.90;69.50;;;;;;4161651;28;20187;-74
2022/08/15 07:14:48;;;;;;;818.73;158.00;;;18.00;68.30;;;;;;4162011;28;20700;-74
2022/08/15 07:17:08;;;;;;;205.93;77.80;;;18.10;68.10;;;;;;4164199;28;20993;-75
2022/08/15 07:19:10;;;;;;;36.30;33.33;;;18.10;68.60;;;;;;4162560;28;20648;-74
2022/08/15 07:21:13;;;;;;;512.20;118.13;;;18.20;67.50;;;;;;4162066;28;20189;-74
2022/08/15 07:23:35;;;;;;;174.93;40.47;;;18.30;66.50;;;;;;4179239;28;20204;-74
2022/08/15 07:25:36;;;;;;;62.63;21.87;;;18.30;66.00;;;;;;4178752;28;20723;-74
2022/08/15 07:27:37;;;;;;;120.43;47.93;;;18.40;66.10;;;;;;4178647;28;20610;-74
2022/08/15 07:29:38;;;;;;;378.17;64.40;;;18.60;65.60;;;;;;4178402;28;20551;-74
2022/08/15 07:31:43;;;;;;;150.93;37.90;;;18.80;64.10;;;;;;4179203;28;20169;-77
2022/08/15 07:33:50;;;;;;;304.30;65.33;;;18.90;62.90;;;;;;4178469;28;20199;-74
2022/08/15 07:36:03;;;;;;;9.57;8.70;;;19.00;62.30;;;;;;4162328;28;20185;-74
2022/08/15 07:38:07;;;;;;;48.00;30.00;;;19.10;59.60;;;;;;4178554;28;20724;-74
2022/08/15 07:40:25;;;;;;;67.77;20.47;;;19.10;60.10;;;;;;4178570;28;20223;-75
2022/08/15 07:42:27;;;;;;;74.23;19.10;;;19.10;59.40;;;;;;4179817;28;20545;-74
2022/08/15 07:44:31;;;;;;;130.53;25.90;;;19.20;58.60;;;;;;4179733;28;20547;-74
2022/08/15 07:46:44;;;;;;;183.97;59.97;;;19.30;58.50;;;;;;4180376;28;20191;-74
2022/08/15 07:49:20;;;;;;;119.87;40.40;;;19.30;57.70;;;;;;4179572;28;20221;-74
2022/08/15 07:51:41;;;;;;;177.40;70.60;;;19.40;57.70;;;;;;4178568;28;20183;-74
2022/08/15 07:53:55;;;;;;;313.47;71.60;;;19.50;58.00;;;;;;4179847;28;20207;-76
2022/08/15 07:56:04;;;;;;;81.77;27.00;;;19.50;56.80;;;;;;4179970;28;20191;-75
2022/08/15 07:58:19;;;;;;;121.80;60.93;;;19.60;57.00;;;;;;4178471;28;20176;-75
2022/08/15 08:00:27;;;;;;;54.60;44.07;;;19.70;57.10;;;;;;4179289;28;20164;-76
2022/08/15 08:02:38;;;;;;;76.37;64.50;;;19.80;56.20;;;;;;4162244;28;20208;-76
2022/08/15 08:04:39;;;;;;;86.83;31.40;;;19.80;55.60;;;;;;4178394;28;20621;-74
2022/08/15 08:06:51;;;;;;;131.33;53.10;;;20.00;54.80;;;;;;4177612;28;20207;-80
2022/08/15 08:09:04;;;;;;;76.23;34.50;;;20.20;53.40;;;;;;4180574;28;20211;-78
2022/08/15 08:11:19;;;;;;;24.80;14.47;;;20.30;52.70;;;;;;4182240;28;20177;-82
2022/08/15 08:13:35;;;;;;;58.33;33.93;;;20.20;53.20;;;;;;4182029;28;20208;-80
2022/08/15 08:15:50;;;;;;;93.43;42.87;;;20.30;54.20;;;;;;4165740;28;20181;-81
2022/08/15 08:17:55;;;;;;;220.77;88.73;;;20.30;52.00;;;;;;4170389;28;20169;-79
2022/08/15 08:20:27;;;;;;;36.83;24.37;;;20.40;52.50;;;;;;4185764;28;20184;-81
2022/08/15 08:22:49;;;;;;;37.43;16.73;;;20.40;52.70;;;;;;4184437;28;20224;-80
2022/08/15 08:25:07;;;;;;;31.03;17.10;;;20.50;52.40;;;;;;4185796;28;20282;-83
2022/08/15 08:27:31;;;;;;;38.90;18.70;;;20.60;52.10;;;;;;4193304;28;20244;-82
2022/08/15 08:29:54;;;;;;;265.60;49.00;;;20.70;51.60;;;;;;4192458;28;20188;-81
2022/08/15 08:32:17;;;;;;;690.93;258.33;;;20.70;52.50;;;;;;4153488;28;20205;-81
2022/08/15 08:34:39;;;;;;;691.27;184.37;;;20.90;51.60;;;;;;4186374;28;20198;-80
2022/08/15 08:36:58;;;;;;;144.37;41.23;;;20.80;51.80;;;;;;4180066;28;20168;-80
2022/08/15 08:39:36;;;;;;;204.00;68.57;;;20.90;52.60;;;;;;4186482;28;20225;-81
2022/08/15 08:41:51;;;;;;;25.93;13.37;;;21.00;52.30;;;;;;4181753;28;20255;-80
2022/08/15 08:44:03;;;;;;;556.50;119.73;;;21.20;51.60;;;;;;4172713;28;20227;-78
2022/08/15 08:46:48;;;;;;;18.30;15.10;;;21.50;51.10;;;;;;4178836;28;20734;-78
2022/08/15 08:49:38;;;;;;;64.27;38.07;;;21.50;50.00;;;;;;4182938;28;20251;-80
2022/08/15 08:52:10;;;;;;;13.67;12.47;;;21.70;49.20;;;;;;4169484;28;20197;-80
2022/08/15 08:54:37;;;;;;;232.03;74.73;;;21.50;48.20;;;;;;4169164;28;20200;-72
2022/08/15 08:56:45;;;;;;;134.13;56.37;;;21.60;47.60;;;;;;4177236;28;20180;-71
2022/08/15 08:58:54;;;;;;;153.07;44.63;;;21.60;47.60;;;;;;4177232;28;20206;-71
2022/08/15 09:00:56;;;;;;;37.67;24.03;;;21.70;47.60;;;;;;4176393;28;20172;-71
2022/08/15 09:03:14;;;;;;;93.60;44.13;;;21.90;48.10;;;;;;4177028;28;20219;-71
2022/08/15 09:05:37;;;;;;;83.53;21.03;;;21.80;46.80;;;;;;4177067;28;20171;-70
2022/08/15 09:07:48;;;;;;;238.37;91.87;;;22.00;46.40;;;;;;4177162;28;20596;-70
2022/08/15 09:09:52;;;;;;;82.17;28.20;;;22.20;45.70;;;;;;4158022;28;20168;-69
2022/08/15 09:14:36;;;;;;;9.43;8.63;;;22.30;46.10;;;;;;4177089;28;20231;-71
2022/08/15 09:16:39;;;;;;;698.33;211.33;;;22.20;45.40;;;;;;4176891;28;20176;-70
2022/08/15 09:19:03;;;;;;;558.83;208.90;;;22.40;44.90;;;;;;4176581;28;20637;-69
2022/08/15 09:21:05;;;;;;;6.77;6.27;;;22.40;44.80;;;;;;4176228;28;20267;-68
2022/08/15 09:23:12;;;;;;;118.03;44.73;;;22.60;43.90;;;;;;4178543;28;20294;-70
2022/08/15 09:25:13;;;;;;;66.17;31.73;;;22.90;42.90;;;;;;4177691;28;20596;-69
2022/08/15 09:27:42;;;;;;;254.57;87.67;;;23.10;42.20;;;;;;4178046;28;20242;-69
2022/08/15 09:29:52;;;;;;;367.27;138.77;;;23.00;42.10;;;;;;4161970;28;20197;-69
2022/08/15 09:32:35;;;;;;;23.20;19.90;;;23.10;41.80;;;;;;4177362;28;20161;-70
2022/08/15 09:34:45;;;;;;;26.47;22.03;;;22.80;42.60;;;;;;4169475;28;20283;-70
2022/08/15 09:37:10;;;;;;;402.10;129.47;;;22.80;42.20;;;;;;4178004;28;20183;-70
2022/08/15 09:39:16;;;;;;;58.40;22.73;;;22.80;42.30;;;;;;4180087;28;20191;-69
2022/08/15 09:41:58;;;;;;;204.27;80.23;;;23.00;42.00;;;;;;4180192;28;20173;-69
2022/08/15 09:44:23;;;;;;;181.73;87.47;;;23.00;41.70;;;;;;4149135;28;20221;-71
2022/08/15 09:47:00;;;;;;;57.77;27.33;;;23.40;41.10;;;;;;4181129;28;20179;-71
2022/08/15 09:49:15;;;;;;;36.70;23.43;;;23.80;40.10;;;;;;4179459;28;20203;-70
2022/08/15 09:52:09;;;;;;;102.17;52.47;;;23.80;40.00;;;;;;4180268;28;20187;-70
2022/08/15 09:54:23;;;;;;;188.77;96.50;;;23.80;39.30;;;;;;4162336;28;20219;-69
2022/08/15 09:56:26;;;;;;;43.53;38.80;;;24.30;38.40;;;;;;4179634;28;20180;-70
2022/08/15 09:58:32;;;;;;;42.30;34.40;;;24.20;37.80;;;;;;4179485;28;20649;-70
2022/08/15 10:01:03;;;;;;;157.57;74.60;;;24.20;37.30;;;;;;4178580;28;20176;-70
2022/08/15 10:03:24;;;;;;;23.70;21.40;;;23.90;37.90;;;;;;4178925;28;20296;-70
2022/08/15 10:05:42;;;;;;;60.70;42.30;;;23.80;37.50;;;;;;4179206;28;20188;-69
2022/08/15 10:08:13;;;;;;;158.37;57.53;;;24.20;36.70;;;;;;4164353;28;20250;-69
2022/08/15 10:10:32;;;;;;;21.73;19.43;;;24.10;36.40;;;;;;4170157;28;20206;-72
2022/08/15 10:12:37;;;;;;;85.67;56.87;;;24.60;36.30;;;;;;4180235;28;20180;-71
2022/08/15 10:14:52;;;;;;;82.67;22.03;;;24.40;36.70;;;;;;4180463;28;20317;-71
2022/08/15 10:16:59;;;;;;;15.63;14.27;;;24.60;36.40;;;;;;4180354;28;20270;-71
2022/08/15 10:19:08;;;;;;;43.73;29.53;;;24.50;36.00;;;;;;4178976;28;20684;-72
2022/08/15 10:21:32;;;;;;;97.30;51.40;;;24.70;35.90;;;;;;4178397;28;20617;-71
2022/08/15 10:23:36;;;;;;;22.20;17.27;;;24.60;36.60;;;;;;4178633;28;20223;-72
2022/08/15 10:25:49;;;;;;;23.23;17.80;;;24.70;35.90;;;;;;4180202;28;20833;-72
2022/08/15 10:28:05;;;;;;;113.13;81.73;;;25.30;34.20;;;;;;4178693;28;20326;-71
2022/08/15 10:30:16;;;;;;;24.50;20.87;;;26.10;33.20;;;;;;4179833;28;20291;-70
2022/08/15 10:32:41;;;;;;;84.97;77.40;;;26.50;33.10;;;;;;4178612;28;20251;-71
2022/08/15 10:35:01;;;;;;;99.80;64.30;;;27.10;31.50;;;;;;4178777;28;20176;-72
2022/08/15 10:37:09;;;;;;;81.77;47.50;;;27.20;30.10;;;;;;4177674;28;20184;-71
2022/08/15 10:39:40;;;;;;;81.57;43.37;;;27.30;30.00;;;;;;4178569;28;20180;-70
2022/08/15 10:42:49;;;;;;;746.60;260.57;;;27.30;30.00;;;;;;4161529;28;20223;-69
2022/08/15 10:45:11;;;;;;;232.57;91.47;;;27.20;29.40;;;;;;4178669;28;20231;-69
2022/08/15 10:47:32;;;;;;;119.87;50.03;;;27.50;28.90;;;;;;4178874;28;20653;-69
2022/08/15 10:49:57;;;;;;;296.83;126.90;;;27.00;30.10;;;;;;4180380;28;20186;-70
2022/08/15 10:52:22;;;;;;;338.10;132.20;;;27.30;29.10;;;;;;4164898;28;20548;-69